Airfield :







YOU CAN JOIN US ON...

 
LOGIN :

Register | Disclaimer

   EN    FR    IT 

 









Legend :    VFR   Marginal VFR   IFR   Intensive IFR   Very Intensive IFR
Visi :
Ceiling :
>= 8 km
>= 3000ft
5 to 8 km
1000 to 3000 ft
1500m to 5 km
500 to 1000 ft
800 to 1500m
200 to 500 ft
< 800m
< 200 ft
Symbols :   Thunderstorms  Fog  Heavy snow  Heavy precipitations  Wind > 20 kt






- Airport Elevation : 167 ft
- IATA code : YAW


CYAW - CFB Shearwater

METAR N/A
TAF TAF CYAW
Valid from the 23 at 18:00 until the 24 at 06:00 UTC


231730Z 2318/2406 10018G30KT 4SM -RA BR SCT006 OVC010
TEMPO 2318/2320 1SM RA BR OVC006
BECMG 2318/2320 12020G35KT
FM232000 12025G40KT 2SM +RA BR OVC008
TEMPO 2320/2401 1/2SM RA FG OVC003
PROB30 2320/2323 1SM TSRA BR BKN005 OVC012CB
FM240100 15020G35KT 1/2SM -RA FG OVC002
BECMG 2401/2403 24015G25KT 2SM BR OVC005
FM240400 25015G25KT P6SM FEW005 BKN015
BECMG 2404/2406 28015G25KT SCT015 RMK NXT FCST BY 240000Z



MET'MAP, your aeronautical weather chart ! - Copyright ORBIFLY December 2007 - Disclaimer

ORBIFLY MET'MAP TEAM :

Programming & Development : Alexandra Zaïnal
Concept & Development : Baudouin d'Aumeries
Co-Development & Prog : Marc-Olivier Méhu
Technical & hardware support : Manuel Goepfert

Contact : metmap@orbifly.com




SOURCES & CREDITS :

   NOAA